Time;durP1;ratioP1;P1;durP2;ratioP2;P2;SDS_P1;SDS_P2;PMS_P1;PMS_P2;Temp;Humidity;BMP_temperature;BMP_pressure;BME280_temperature;BME280_humidity;BME280_pressure;Samples;Min_cycle;Max_cycle;Signal;HPM_P1;HPM_P2
2022/03/07 00:02:11;;;;;;;21.25;5.45;;;;;;;;;;5056244;28;20048;-64
2022/03/07 00:04:37;;;;;;;25.08;5.75;;;;;;;;;;5052341;28;20512;-62
2022/03/07 00:07:03;;;;;;;22.65;5.53;;;;;;;;;;5058825;28;20462;-72
2022/03/07 00:09:29;;;;;;;22.95;6.80;;;;;;;;;;5061033;28;20071;-65
2022/03/07 00:11:55;;;;;;;20.70;5.95;;;;;;;;;;5061574;28;20413;-65
2022/03/07 00:14:21;;;;;;;20.00;4.95;;;;;;;;;;5064096;28;20098;-57
2022/03/07 00:16:47;;;;;;;22.48;5.25;;;;;;;;;;5063710;28;20059;-63
2022/03/07 00:19:13;;;;;;;18.50;5.07;;;;;;;;;;5056446;28;20087;-62
2022/03/07 00:21:40;;;;;;;21.80;5.40;;;;;;;;;;5061133;28;20092;-58
2022/03/07 00:24:07;;;;;;;18.08;5.18;;;;;;;;;;5061944;28;20674;-56
2022/03/07 00:26:33;;;;;;;17.10;4.82;;;;;;;;;;5062163;28;20023;-57
2022/03/07 00:28:59;;;;;;;17.00;4.93;;;;;;;;;;5063362;28;20020;-57
2022/03/07 00:31:25;;;;;;;18.35;4.60;;;;;;;;;;5060928;28;20108;-57
2022/03/07 00:33:52;;;;;;;15.95;4.75;;;;;;;;;;5060354;28;20127;-66
2022/03/07 00:36:19;;;;;;;18.75;5.15;;;;;;;;;;5062513;28;20477;-61
2022/03/07 00:38:45;;;;;;;15.65;4.82;;;;;;;;;;5059296;28;20024;-64
2022/03/07 00:41:11;;;;;;;17.27;4.70;;;;;;;;;;5061727;28;20500;-68
2022/03/07 00:43:37;;;;;;;15.88;4.80;;;;;;;;;;5060629;28;20017;-57
2022/03/07 00:46:04;;;;;;;17.05;4.70;;;;;;;;;;5061911;28;20025;-69
2022/03/07 00:48:30;;;;;;;16.48;4.60;;;;;;;;;;5064171;28;20036;-60
2022/03/07 00:50:56;;;;;;;16.60;4.50;;;;;;;;;;5063421;28;20025;-66
2022/03/07 00:53:24;;;;;;;14.68;4.30;;;;;;;;;;5051488;28;20469;-67
2022/03/07 00:55:51;;;;;;;15.00;4.40;;;;;;;;;;5060405;28;20020;-56
2022/03/07 00:58:17;;;;;;;14.02;4.70;;;;;;;;;;5060052;28;20089;-57
2022/03/07 01:00:44;;;;;;;13.68;4.25;;;;;;;;;;5059497;28;20025;-56
2022/03/07 01:03:11;;;;;;;13.27;4.07;;;;;;;;;;5060513;28;20025;-56
2022/03/07 01:05:37;;;;;;;14.88;4.15;;;;;;;;;;5060337;28;20565;-65
2022/03/07 01:08:03;;;;;;;11.73;4.20;;;;;;;;;;5061303;28;20829;-59
2022/03/07 01:10:29;;;;;;;14.23;4.40;;;;;;;;;;5059569;28;20034;-56
2022/03/07 01:12:55;;;;;;;14.98;4.30;;;;;;;;;;5060305;28;20095;-56
2022/03/07 01:15:21;;;;;;;16.02;4.13;;;;;;;;;;5060017;28;20553;-63
2022/03/07 01:17:48;;;;;;;12.50;4.22;;;;;;;;;;5063659;28;20036;-58
2022/03/07 01:20:14;;;;;;;13.18;3.97;;;;;;;;;;5059627;28;20110;-72
2022/03/07 01:22:43;;;;;;;12.00;3.90;;;;;;;;;;5059120;28;20060;-56
2022/03/07 01:25:10;;;;;;;12.68;4.40;;;;;;;;;;5061314;28;20112;-69
2022/03/07 01:27:36;;;;;;;15.30;4.25;;;;;;;;;;5063099;28;20423;-57
2022/03/07 01:30:03;;;;;;;12.90;3.97;;;;;;;;;;5059341;28;20026;-60
2022/03/07 01:32:29;;;;;;;13.95;4.30;;;;;;;;;;5058591;28;20024;-64
2022/03/07 01:34:55;;;;;;;10.45;3.90;;;;;;;;;;5050083;28;20100;-59
2022/03/07 01:37:21;;;;;;;12.95;4.18;;;;;;;;;;5064214;28;20031;-59
2022/03/07 01:39:47;;;;;;;12.93;4.03;;;;;;;;;;5056399;28;20034;-66
2022/03/07 01:42:13;;;;;;;14.10;3.95;;;;;;;;;;5055256;28;20012;-59
2022/03/07 01:44:39;;;;;;;12.18;3.90;;;;;;;;;;5064171;28;20108;-66
2022/03/07 01:47:06;;;;;;;10.85;3.65;;;;;;;;;;5059186;28;20103;-60
2022/03/07 01:49:32;;;;;;;10.30;3.85;;;;;;;;;;5065235;28;20032;-67
2022/03/07 01:51:58;;;;;;;12.90;4.07;;;;;;;;;;5053926;28;20123;-65
2022/03/07 01:54:24;;;;;;;12.45;3.80;;;;;;;;;;5066841;28;20123;-63
2022/03/07 01:56:51;;;;;;;14.27;4.10;;;;;;;;;;5060098;28;20060;-59
2022/03/07 01:59:25;;;;;;;11.13;3.97;;;;;;;;;;5072326;28;20021;-70
2022/03/07 02:01:51;;;;;;;13.30;3.95;;;;;;;;;;5070831;28;20177;-72
2022/03/07 02:04:17;;;;;;;12.55;3.85;;;;;;;;;;5070685;28;20077;-74
2022/03/07 02:06:44;;;;;;;10.68;3.83;;;;;;;;;;5075954;28;20031;-71
2022/03/07 02:09:11;;;;;;;9.82;3.85;;;;;;;;;;5076236;28;20118;-64
2022/03/07 02:11:38;;;;;;;11.45;4.00;;;;;;;;;;5076138;28;20493;-63
2022/03/07 02:14:14;;;;;;;11.45;4.03;;;;;;;;;;5076482;28;20032;-74
2022/03/07 02:16:40;;;;;;;10.77;3.80;;;;;;;;;;5076102;28;20400;-72
2022/03/07 02:19:06;;;;;;;12.23;3.88;;;;;;;;;;5075937;28;20036;-70
2022/03/07 02:21:36;;;;;;;11.85;4.07;;;;;;;;;;5076436;28;20020;-66
2022/03/07 02:24:02;;;;;;;10.73;3.97;;;;;;;;;;5076069;28;20024;-65
2022/03/07 02:26:28;;;;;;;12.02;4.00;;;;;;;;;;5076120;28;20028;-65
2022/03/07 02:28:54;;;;;;;14.45;3.90;;;;;;;;;;5076149;28;20024;-67
2022/03/07 02:31:21;;;;;;;12.80;4.10;;;;;;;;;;5058157;28;20362;-59
2022/03/07 02:33:48;;;;;;;13.40;4.25;;;;;;;;;;5075952;28;20050;-74
2022/03/07 02:36:14;;;;;;;12.15;3.90;;;;;;;;;;5070877;28;20389;-74
2022/03/07 02:38:40;;;;;;;13.80;3.90;;;;;;;;;;5065202;28;20162;-77
2022/03/07 02:41:06;;;;;;;11.27;4.15;;;;;;;;;;5075891;28;20119;-77
2022/03/07 02:43:33;;;;;;;13.68;4.47;;;;;;;;;;5072702;28;20073;-74
2022/03/07 02:45:59;;;;;;;17.80;4.40;;;;;;;;;;5075044;28;20028;-60
2022/03/07 02:48:25;;;;;;;16.13;4.40;;;;;;;;;;5062110;28;20482;-76
2022/03/07 02:50:52;;;;;;;14.10;4.30;;;;;;;;;;5067108;28;20021;-60
2022/03/07 02:53:18;;;;;;;13.68;4.20;;;;;;;;;;5063697;28;20025;-71
2022/03/07 02:55:44;;;;;;;14.60;4.28;;;;;;;;;;5069037;28;20029;-76
2022/03/07 02:58:10;;;;;;;13.90;4.47;;;;;;;;;;5080608;28;20036;-74
2022/03/07 03:00:37;;;;;;;13.68;4.32;;;;;;;;;;5071182;28;20055;-74
2022/03/07 03:03:03;;;;;;;15.25;4.00;;;;;;;;;;5064926;28;20029;-69
2022/03/07 03:05:29;;;;;;;13.73;4.47;;;;;;;;;;5071837;28;20089;-73
2022/03/07 03:07:55;;;;;;;12.05;4.10;;;;;;;;;;5055476;28;20059;-74
2022/03/07 03:10:21;;;;;;;12.68;4.18;;;;;;;;;;5055247;28;20091;-75
2022/03/07 03:12:48;;;;;;;13.52;4.15;;;;;;;;;;5055217;28;20025;-73
2022/03/07 03:15:15;;;;;;;12.07;4.00;;;;;;;;;;5056317;28;20086;-60
2022/03/07 03:17:45;;;;;;;12.85;4.30;;;;;;;;;;5064578;28;20036;-58
2022/03/07 03:20:11;;;;;;;14.52;4.18;;;;;;;;;;5075023;28;20097;-74
2022/03/07 03:22:38;;;;;;;14.60;4.10;;;;;;;;;;5075154;28;20466;-71
2022/03/07 03:25:05;;;;;;;15.43;4.15;;;;;;;;;;5074919;28;20036;-74
2022/03/07 03:27:31;;;;;;;12.27;4.00;;;;;;;;;;5074842;28;20024;-59
2022/03/07 03:29:57;;;;;;;13.48;4.30;;;;;;;;;;5055461;28;20370;-74
2022/03/07 03:32:24;;;;;;;11.93;4.20;;;;;;;;;;5074701;28;20016;-60
2022/03/07 03:34:50;;;;;;;13.93;4.18;;;;;;;;;;5062774;28;20068;-59
2022/03/07 03:37:16;;;;;;;14.80;4.50;;;;;;;;;;5073930;28;20024;-72
2022/03/07 03:39:42;;;;;;;13.27;4.13;;;;;;;;;;5062288;28;20488;-72
2022/03/07 03:42:08;;;;;;;16.23;4.35;;;;;;;;;;5054750;28;20500;-70
2022/03/07 03:44:34;;;;;;;16.52;4.80;;;;;;;;;;5054631;28;20098;-69
2022/03/07 03:47:00;;;;;;;19.27;4.88;;;;;;;;;;5055391;28;20603;-59
2022/03/07 03:49:26;;;;;;;13.70;4.18;;;;;;;;;;5054102;28;20040;-69
2022/03/07 03:51:52;;;;;;;16.00;4.50;;;;;;;;;;5054781;28;20021;-71
2022/03/07 03:54:18;;;;;;;17.00;4.40;;;;;;;;;;5066872;28;20112;-70
2022/03/07 03:56:44;;;;;;;15.98;4.55;;;;;;;;;;5042784;28;20041;-71
2022/03/07 03:59:10;;;;;;;15.23;4.47;;;;;;;;;;5071166;28;20183;-72
2022/03/07 04:01:36;;;;;;;14.90;4.60;;;;;;;;;;5064172;28;20035;-62
2022/03/07 04:04:02;;;;;;;14.13;4.55;;;;;;;;;;5069512;28;20457;-62
2022/03/07 04:06:28;;;;;;;12.65;4.18;;;;;;;;;;5066980;28;20524;-66
2022/03/07 04:08:55;;;;;;;13.82;4.07;;;;;;;;;;5072003;28;20394;-67
2022/03/07 04:11:21;;;;;;;16.15;4.53;;;;;;;;;;5063815;28;20371;-72
2022/03/07 04:13:47;;;;;;;13.13;4.15;;;;;;;;;;5054798;28;20025;-73
2022/03/07 04:16:14;;;;;;;14.63;4.40;;;;;;;;;;5057951;28;20036;-72
2022/03/07 04:18:41;;;;;;;14.25;4.30;;;;;;;;;;5073232;28;20021;-71
2022/03/07 04:21:07;;;;;;;12.48;4.20;;;;;;;;;;5072839;28;20429;-72
2022/03/07 04:23:33;;;;;;;11.10;3.95;;;;;;;;;;5072897;28;20090;-68
2022/03/07 04:25:59;;;;;;;9.88;3.97;;;;;;;;;;5071313;28;20393;-60
2022/03/07 04:28:25;;;;;;;14.27;4.15;;;;;;;;;;5063513;28;20427;-74
2022/03/07 04:30:51;;;;;;;12.52;3.92;;;;;;;;;;5069926;28;20400;-64
2022/03/07 04:33:18;;;;;;;13.30;4.20;;;;;;;;;;5053752;28;20116;-74
2022/03/07 04:35:44;;;;;;;12.73;4.10;;;;;;;;;;5054879;28;20411;-73
2022/03/07 04:38:10;;;;;;;12.95;4.03;;;;;;;;;;5063891;28;20036;-73
2022/03/07 04:40:36;;;;;;;11.32;4.07;;;;;;;;;;5073562;28;20036;-62
2022/03/07 04:43:02;;;;;;;11.70;4.10;;;;;;;;;;5073643;28;20025;-66
2022/03/07 04:45:28;;;;;;;12.50;4.00;;;;;;;;;;5072978;28;20025;-74
2022/03/07 04:47:55;;;;;;;13.80;4.10;;;;;;;;;;5071742;28;20046;-74
2022/03/07 04:50:21;;;;;;;12.13;4.13;;;;;;;;;;5073222;28;20047;-70
2022/03/07 04:52:47;;;;;;;11.10;4.18;;;;;;;;;;5068748;28;20036;-68
2022/03/07 04:55:13;;;;;;;14.15;4.38;;;;;;;;;;5056861;28;20362;-72
2022/03/07 04:57:39;;;;;;;13.32;4.15;;;;;;;;;;5063410;28;20110;-68
2022/03/07 05:00:07;;;;;;;11.35;3.80;;;;;;;;;;5069316;28;20063;-62
2022/03/07 05:02:33;;;;;;;12.30;4.25;;;;;;;;;;5062092;28;20090;-71
2022/03/07 05:04:59;;;;;;;11.77;3.90;;;;;;;;;;5070296;28;20036;-70
2022/03/07 05:07:25;;;;;;;12.65;4.07;;;;;;;;;;5069526;28;20024;-72
2022/03/07 05:09:51;;;;;;;11.98;3.95;;;;;;;;;;5056508;28;20043;-68
2022/03/07 05:12:17;;;;;;;13.13;4.28;;;;;;;;;;5072970;28;20024;-71
2022/03/07 05:14:43;;;;;;;14.32;4.20;;;;;;;;;;5073060;28;20441;-69
2022/03/07 05:17:10;;;;;;;14.13;4.13;;;;;;;;;;5068306;28;20421;-71
2022/03/07 05:19:36;;;;;;;12.93;4.00;;;;;;;;;;5058221;28;20414;-68
2022/03/07 05:22:02;;;;;;;13.13;4.10;;;;;;;;;;5054433;28;20086;-65
2022/03/07 05:24:28;;;;;;;11.75;3.97;;;;;;;;;;5073097;28;20024;-72
2022/03/07 05:26:54;;;;;;;12.07;4.20;;;;;;;;;;5072836;28;20436;-71
2022/03/07 05:29:21;;;;;;;11.82;3.95;;;;;;;;;;5069881;28;20512;-63
2022/03/07 05:31:47;;;;;;;12.40;4.00;;;;;;;;;;5070174;28;20419;-70
2022/03/07 05:34:13;;;;;;;11.45;3.80;;;;;;;;;;5071464;28;20495;-70
2022/03/07 05:36:39;;;;;;;12.68;4.05;;;;;;;;;;5065664;28;20465;-71
2022/03/07 05:39:05;;;;;;;12.10;4.10;;;;;;;;;;5065292;28;20039;-71
2022/03/07 05:41:31;;;;;;;11.30;4.15;;;;;;;;;;5064088;28;20542;-60
2022/03/07 05:43:57;;;;;;;12.75;4.20;;;;;;;;;;5073386;28;20566;-68
2022/03/07 05:46:23;;;;;;;12.20;4.20;;;;;;;;;;5057673;28;20103;-71
2022/03/07 05:48:49;;;;;;;10.40;4.00;;;;;;;;;;5074411;28;20442;-71
2022/03/07 05:51:23;;;;;;;10.25;3.90;;;;;;;;;;5075588;28;20504;-71
2022/03/07 05:53:50;;;;;;;12.32;4.28;;;;;;;;;;5077147;28;20485;-69
2022/03/07 05:56:16;;;;;;;12.13;4.22;;;;;;;;;;5062896;28;20433;-70
2022/03/07 05:58:42;;;;;;;12.82;4.35;;;;;;;;;;5067017;28;20036;-60
2022/03/07 06:01:08;;;;;;;11.27;3.90;;;;;;;;;;5065528;28;20054;-72
2022/03/07 06:03:34;;;;;;;10.40;4.00;;;;;;;;;;5059161;28;20021;-60
2022/03/07 06:06:00;;;;;;;10.45;3.90;;;;;;;;;;5061524;28;20051;-71
2022/03/07 06:08:26;;;;;;;11.40;4.10;;;;;;;;;;5071183;28;20516;-70
2022/03/07 06:10:52;;;;;;;12.68;4.18;;;;;;;;;;5059574;28;20032;-66
2022/03/07 06:13:19;;;;;;;11.60;4.20;;;;;;;;;;5056437;28;20033;-72
2022/03/07 06:15:45;;;;;;;12.13;4.30;;;;;;;;;;5060249;28;20020;-69
2022/03/07 06:18:11;;;;;;;10.43;4.00;;;;;;;;;;5068107;28;20044;-71
2022/03/07 06:20:37;;;;;;;11.50;4.10;;;;;;;;;;5059871;28;20037;-73
2022/03/07 06:23:04;;;;;;;11.80;4.20;;;;;;;;;;5073474;28;20178;-70
2022/03/07 06:25:33;;;;;;;11.52;4.20;;;;;;;;;;5061217;28;20043;-67
2022/03/07 06:27:59;;;;;;;10.73;3.90;;;;;;;;;;5058262;28;20110;-69
2022/03/07 06:30:25;;;;;;;14.70;4.40;;;;;;;;;;5071909;28;20082;-70
2022/03/07 06:32:51;;;;;;;13.02;4.38;;;;;;;;;;5067760;28;20020;-69
2022/03/07 06:35:17;;;;;;;12.77;4.45;;;;;;;;;;5059523;28;20548;-67
2022/03/07 06:37:49;;;;;;;12.93;4.28;;;;;;;;;;5062149;28;20030;-71
2022/03/07 06:40:16;;;;;;;9.82;3.90;;;;;;;;;;5064145;28;20036;-70
2022/03/07 06:42:43;;;;;;;13.43;4.43;;;;;;;;;;5068449;28;20025;-70
2022/03/07 06:45:12;;;;;;;12.18;4.10;;;;;;;;;;5056595;28;20084;-70
2022/03/07 06:47:38;;;;;;;13.23;4.28;;;;;;;;;;5056061;28;20056;-72
2022/03/07 06:50:04;;;;;;;12.23;4.50;;;;;;;;;;5057693;28;20048;-68
2022/03/07 06:52:30;;;;;;;11.18;4.20;;;;;;;;;;5065101;28;20074;-70
2022/03/07 06:54:56;;;;;;;12.55;4.50;;;;;;;;;;5060388;28;20029;-58
2022/03/07 06:57:22;;;;;;;11.00;4.00;;;;;;;;;;5070392;28;20025;-70
2022/03/07 06:59:49;;;;;;;13.57;4.40;;;;;;;;;;5074392;28;20081;-63
2022/03/07 07:02:15;;;;;;;13.27;4.60;;;;;;;;;;5055799;28;20034;-64
2022/03/07 07:04:41;;;;;;;12.90;4.57;;;;;;;;;;5054810;28;20044;-71
2022/03/07 07:07:07;;;;;;;13.55;4.53;;;;;;;;;;5073409;28;20103;-71
2022/03/07 07:09:33;;;;;;;14.40;4.60;;;;;;;;;;5062629;28;20021;-65
2022/03/07 07:11:59;;;;;;;13.80;4.72;;;;;;;;;;5064119;28;20102;-72
2022/03/07 07:14:25;;;;;;;14.23;4.72;;;;;;;;;;5069457;28;20079;-66
2022/03/07 07:16:51;;;;;;;12.95;4.55;;;;;;;;;;5062596;28;20044;-73
2022/03/07 07:19:17;;;;;;;13.95;4.85;;;;;;;;;;5037923;28;20033;-68
2022/03/07 07:21:43;;;;;;;12.60;4.32;;;;;;;;;;5054857;28;20040;-68
2022/03/07 07:24:10;;;;;;;13.82;4.50;;;;;;;;;;5055068;28;20031;-69
2022/03/07 07:26:36;;;;;;;15.38;4.63;;;;;;;;;;5072287;28;20029;-68
2022/03/07 07:29:02;;;;;;;13.48;4.40;;;;;;;;;;5072854;28;20035;-68
2022/03/07 07:31:28;;;;;;;15.00;4.53;;;;;;;;;;5074812;28;20432;-65
2022/03/07 07:33:54;;;;;;;13.02;4.38;;;;;;;;;;5068328;28;20457;-70
2022/03/07 07:36:20;;;;;;;14.05;4.35;;;;;;;;;;5073782;28;20029;-68
2022/03/07 07:38:46;;;;;;;14.02;4.47;;;;;;;;;;5066697;28;20032;-61
2022/03/07 07:41:13;;;;;;;14.27;4.38;;;;;;;;;;5061852;28;20505;-71
2022/03/07 07:43:39;;;;;;;12.98;4.47;;;;;;;;;;5070037;28;20124;-58
2022/03/07 07:46:05;;;;;;;12.10;4.22;;;;;;;;;;5054151;28;20032;-65
2022/03/07 07:48:31;;;;;;;11.27;4.07;;;;;;;;;;5071778;28;20039;-64
2022/03/07 07:50:57;;;;;;;13.70;4.30;;;;;;;;;;5060343;28;20024;-57
2022/03/07 07:53:23;;;;;;;13.63;4.30;;;;;;;;;;5051636;28;20478;-58
2022/03/07 07:55:49;;;;;;;13.85;4.40;;;;;;;;;;5070582;28;20470;-57
2022/03/07 07:58:15;;;;;;;12.57;3.97;;;;;;;;;;5063467;28;20044;-57
2022/03/07 08:00:41;;;;;;;14.13;4.20;;;;;;;;;;5056382;28;20121;-59
2022/03/07 08:03:07;;;;;;;17.02;4.38;;;;;;;;;;5063772;28;20029;-56
2022/03/07 08:05:34;;;;;;;15.82;4.22;;;;;;;;;;5061518;28;20028;-56
2022/03/07 08:08:00;;;;;;;14.55;4.28;;;;;;;;;;5060611;28;20020;-55
2022/03/07 08:10:26;;;;;;;15.95;4.10;;;;;;;;;;5043885;28;20027;-55
2022/03/07 08:12:52;;;;;;;11.80;4.00;;;;;;;;;;5059127;28;20021;-58
2022/03/07 08:15:18;;;;;;;15.70;4.10;;;;;;;;;;5066240;28;20073;-54
2022/03/07 08:17:46;;;;;;;14.48;3.90;;;;;;;;;;5061151;28;20032;-56
2022/03/07 08:20:15;;;;;;;14.30;4.03;;;;;;;;;;5059440;28;20078;-57
2022/03/07 08:22:42;;;;;;;16.80;4.40;;;;;;;;;;5056754;28;20174;-57
2022/03/07 08:25:09;;;;;;;19.58;4.10;;;;;;;;;;5065137;28;20021;-56
2022/03/07 08:27:34;;;;;;;18.75;4.50;;;;;;;;;;5058208;28;20036;-57
2022/03/07 08:30:01;;;;;;;18.67;5.00;;;;;;;;;;5057429;28;20037;-57
2022/03/07 08:32:27;;;;;;;20.92;4.30;;;;;;;;;;5059553;28;20062;-56
2022/03/07 08:34:55;;;;;;;20.13;4.32;;;;;;;;;;5057607;28;20120;-56
2022/03/07 08:37:21;;;;;;;18.30;4.00;;;;;;;;;;5063930;28;20039;-57
2022/03/07 08:39:47;;;;;;;17.42;4.00;;;;;;;;;;5060988;28;20037;-72
2022/03/07 08:42:13;;;;;;;15.65;3.88;;;;;;;;;;5061992;28;20025;-58
2022/03/07 08:44:39;;;;;;;31.02;4.32;;;;;;;;;;5053303;28;20031;-55
2022/03/07 08:47:05;;;;;;;22.25;4.10;;;;;;;;;;5055598;28;20048;-61
2022/03/07 08:49:31;;;;;;;22.02;5.78;;;;;;;;;;5065501;28;20040;-59
2022/03/07 08:51:57;;;;;;;31.15;6.40;;;;;;;;;;5056271;28;20040;-59
2022/03/07 08:54:23;;;;;;;22.40;5.68;;;;;;;;;;5056507;28;20083;-58
2022/03/07 08:56:49;;;;;;;20.00;5.72;;;;;;;;;;5072198;28;20052;-58
2022/03/07 08:59:15;;;;;;;22.10;5.35;;;;;;;;;;5057251;28;20116;-59
2022/03/07 09:01:41;;;;;;;19.27;5.00;;;;;;;;;;5066622;28;20054;-58
2022/03/07 09:04:07;;;;;;;20.75;4.78;;;;;;;;;;5054890;28;20024;-56
2022/03/07 09:06:33;;;;;;;17.90;4.60;;;;;;;;;;5054817;28;20029;-66
2022/03/07 09:08:59;;;;;;;16.20;4.28;;;;;;;;;;5042971;28;20090;-56
2022/03/07 09:11:25;;;;;;;15.80;3.92;;;;;;;;;;5059015;28;20021;-56
2022/03/07 09:13:53;;;;;;;17.40;4.18;;;;;;;;;;5055255;28;20029;-56
2022/03/07 09:16:19;;;;;;;12.23;3.40;;;;;;;;;;5059665;28;20104;-58
2022/03/07 09:18:45;;;;;;;12.98;3.63;;;;;;;;;;5041513;28;20155;-56
2022/03/07 09:21:11;;;;;;;16.10;3.80;;;;;;;;;;5059833;28;20040;-56
2022/03/07 09:23:39;;;;;;;14.85;3.55;;;;;;;;;;5057942;28;20119;-53
2022/03/07 09:26:06;;;;;;;16.42;3.75;;;;;;;;;;5058177;28;20028;-54
2022/03/07 09:28:33;;;;;;;15.90;3.58;;;;;;;;;;5060932;28;20104;-55
2022/03/07 09:30:59;;;;;;;14.45;3.47;;;;;;;;;;5054524;28;20440;-58
2022/03/07 09:33:26;;;;;;;11.02;3.78;;;;;;;;;;5059174;28;20024;-66
2022/03/07 09:35:52;;;;;;;12.60;3.50;;;;;;;;;;5052749;28;20493;-56
2022/03/07 09:38:18;;;;;;;13.45;3.55;;;;;;;;;;5057103;28;20029;-60
2022/03/07 09:40:44;;;;;;;11.38;3.20;;;;;;;;;;5056808;28;20045;-57
2022/03/07 09:43:10;;;;;;;10.95;3.58;;;;;;;;;;5056839;28;20080;-56
2022/03/07 09:45:36;;;;;;;15.95;3.67;;;;;;;;;;5059703;28;20036;-57
2022/03/07 09:48:02;;;;;;;15.63;3.75;;;;;;;;;;5061630;28;20024;-58
2022/03/07 09:50:28;;;;;;;14.10;3.60;;;;;;;;;;5054946;28;20037;-57
2022/03/07 09:52:55;;;;;;;13.60;3.30;;;;;;;;;;5057212;28;20552;-57
2022/03/07 09:55:21;;;;;;;14.60;3.78;;;;;;;;;;5059971;28;20064;-57
2022/03/07 09:57:47;;;;;;;17.23;3.80;;;;;;;;;;5057165;28;20036;-65
2022/03/07 10:00:14;;;;;;;13.90;3.45;;;;;;;;;;5052572;28;20041;-71
2022/03/07 10:02:40;;;;;;;15.55;3.60;;;;;;;;;;5056133;28;20036;-71
2022/03/07 10:05:07;;;;;;;10.82;3.50;;;;;;;;;;5060265;28;20021;-57
2022/03/07 10:07:43;;;;;;;12.30;3.50;;;;;;;;;;5054470;28;20029;-66
2022/03/07 10:10:09;;;;;;;11.27;3.53;;;;;;;;;;5036774;28;20020;-71
2022/03/07 10:12:43;;;;;;;11.60;3.50;;;;;;;;;;5040795;28;20445;-71
2022/03/07 10:15:14;;;;;;;9.13;3.10;;;;;;;;;;5060294;28;20055;-68
2022/03/07 10:17:46;;;;;;;10.30;3.23;;;;;;;;;;5052379;28;20025;-57
2022/03/07 10:20:12;;;;;;;9.48;3.22;;;;;;;;;;5058369;28;20147;-58
2022/03/07 10:22:45;;;;;;;8.73;2.97;;;;;;;;;;5059831;28;20084;-57
2022/03/07 10:25:11;;;;;;;8.13;3.00;;;;;;;;;;5044954;28;20123;-57
2022/03/07 10:27:39;;;;;;;11.15;3.35;;;;;;;;;;5061860;28;20103;-56
2022/03/07 10:30:11;;;;;;;12.38;3.20;;;;;;;;;;5064573;28;20495;-56
2022/03/07 10:32:38;;;;;;;11.38;3.25;;;;;;;;;;5057333;28;20036;-56
2022/03/07 10:35:04;;;;;;;10.98;3.00;;;;;;;;;;5053883;28;20381;-55
2022/03/07 10:37:34;;;;;;;8.82;3.05;;;;;;;;;;5062059;28;20047;-55
2022/03/07 10:40:00;;;;;;;10.43;2.90;;;;;;;;;;5064845;28;20036;-62
2022/03/07 10:42:26;;;;;;;8.60;2.83;;;;;;;;;;5056666;28;20328;-66
2022/03/07 10:44:52;;;;;;;10.48;3.13;;;;;;;;;;5058681;28;20029;-67
2022/03/07 10:47:20;;;;;;;6.18;2.78;;;;;;;;;;5059030;28;20033;-70
2022/03/07 10:49:52;;;;;;;8.38;2.70;;;;;;;;;;5060458;28;20047;-56
2022/03/07 10:52:18;;;;;;;7.03;2.72;;;;;;;;;;5041172;28;20082;-69
2022/03/07 10:54:46;;;;;;;12.05;2.80;;;;;;;;;;5063865;28;20025;-54
2022/03/07 10:57:12;;;;;;;8.43;2.72;;;;;;;;;;5060388;28;20069;-54
2022/03/07 10:59:38;;;;;;;7.70;2.50;;;;;;;;;;5063203;28;20504;-55
2022/03/07 11:02:06;;;;;;;6.68;2.40;;;;;;;;;;5072736;28;20028;-56
2022/03/07 11:04:33;;;;;;;7.25;2.63;;;;;;;;;;5055144;28;20025;-54
2022/03/07 11:06:59;;;;;;;6.45;2.40;;;;;;;;;;5062818;28;20105;-64
2022/03/07 11:09:27;;;;;;;6.82;2.40;;;;;;;;;;5060690;28;20033;-55
2022/03/07 11:11:53;;;;;;;7.13;2.70;;;;;;;;;;5061396;28;20514;-61
2022/03/07 11:14:20;;;;;;;7.97;2.45;;;;;;;;;;5066476;28;20107;-57
2022/03/07 11:16:50;;;;;;;10.25;2.65;;;;;;;;;;5062861;28;20043;-55
2022/03/07 11:19:18;;;;;;;14.02;2.78;;;;;;;;;;5059214;28;20032;-54
2022/03/07 11:21:50;;;;;;;17.27;3.30;;;;;;;;;;5059480;28;20028;-58
2022/03/07 11:24:18;;;;;;;5.97;2.80;;;;;;;;;;5058781;28;20017;-55
2022/03/07 11:26:44;;;;;;;10.98;2.90;;;;;;;;;;5063061;28;20028;-54
2022/03/07 11:29:10;;;;;;;10.20;3.10;;;;;;;;;;5059774;28;21805;-54
2022/03/07 11:31:38;;;;;;;8.75;3.05;;;;;;;;;;5060215;28;20033;-55
2022/03/07 11:34:07;;;;;;;10.60;2.97;;;;;;;;;;5056794;28;20377;-65
2022/03/07 11:36:36;;;;;;;9.77;3.50;;;;;;;;;;5054512;28;20112;-56
2022/03/07 11:39:03;;;;;;;9.85;3.10;;;;;;;;;;5064634;28;20017;-62
2022/03/07 11:41:31;;;;;;;8.63;3.13;;;;;;;;;;5065165;28;20021;-55
2022/03/07 11:44:19;;;;;;;11.88;3.20;;;;;;;;;;5060066;28;20029;-56
2022/03/07 11:46:51;;;;;;;10.32;3.30;;;;;;;;;;5061333;28;20044;-56
2022/03/07 11:49:31;;;;;;;7.70;3.08;;;;;;;;;;5059239;28;20033;-70
2022/03/07 11:51:58;;;;;;;9.10;2.92;;;;;;;;;;5064034;28;20021;-70
2022/03/07 11:54:24;;;;;;;9.70;3.10;;;;;;;;;;5063538;28;20099;-59
2022/03/07 11:56:51;;;;;;;9.52;3.30;;;;;;;;;;5060462;28;20481;-66
2022/03/07 11:59:17;;;;;;;10.07;3.22;;;;;;;;;;5059047;28;20029;-60
2022/03/07 12:01:53;;;;;;;12.05;3.40;;;;;;;;;;5057850;28;20060;-59
2022/03/07 12:04:19;;;;;;;11.13;3.30;;;;;;;;;;5056399;28;20028;-64
2022/03/07 12:06:47;;;;;;;14.30;4.38;;;;;;;;;;5062473;28;20028;-58
2022/03/07 12:09:32;;;;;;;21.40;7.28;;;;;;;;;;5055469;28;20501;-61
2022/03/07 12:12:18;;;;;;;18.92;7.07;;;;;;;;;;5048178;28;20034;-61
2022/03/07 12:14:47;;;;;;;15.02;4.80;;;;;;;;;;5066957;28;20065;-60
2022/03/07 12:17:22;;;;;;;12.80;4.63;;;;;;;;;;5055423;28;20285;-57
2022/03/07 12:19:55;;;;;;;15.52;4.32;;;;;;;;;;5059562;28;20021;-58
2022/03/07 12:22:23;;;;;;;11.23;4.00;;;;;;;;;;5058088;28;20052;-69
2022/03/07 12:24:49;;;;;;;12.45;4.20;;;;;;;;;;5059874;28;20069;-69
2022/03/07 12:27:15;;;;;;;13.25;4.28;;;;;;;;;;5057780;28;20482;-58
2022/03/07 12:29:43;;;;;;;17.65;4.10;;;;;;;;;;5057321;28;20503;-68
2022/03/07 12:32:10;;;;;;;13.15;4.82;;;;;;;;;;5061219;28;20027;-59
2022/03/07 12:34:39;;;;;;;14.68;4.78;;;;;;;;;;5053492;28;20684;-58
2022/03/07 12:37:20;;;;;;;15.88;4.55;;;;;;;;;;5068009;28;20029;-67
2022/03/07 12:39:48;;;;;;;14.07;4.53;;;;;;;;;;5059205;28;20024;-68
2022/03/07 12:42:15;;;;;;;12.95;4.60;;;;;;;;;;5059715;28;20393;-71
2022/03/07 12:44:41;;;;;;;15.48;4.60;;;;;;;;;;5057167;28;20167;-60
2022/03/07 12:47:08;;;;;;;17.60;4.75;;;;;;;;;;5059958;28;20025;-61
2022/03/07 12:49:35;;;;;;;16.63;4.85;;;;;;;;;;5058422;28;20039;-69
2022/03/07 12:52:06;;;;;;;14.70;4.85;;;;;;;;;;5063371;28;20028;-60
2022/03/07 12:54:33;;;;;;;;;;;;;;;;;;5069858;28;20099;-67
2022/03/07 12:56:59;;;;;;;11.65;3.95;;;;;;;;;;5058175;28;19908;-67
2022/03/07 12:59:26;;;;;;;13.82;4.00;;;;;;;;;;5057583;28;20450;-70
2022/03/07 13:01:52;;;;;;;12.32;3.60;;;;;;;;;;5056350;28;20116;-60
2022/03/07 13:04:19;;;;;;;11.80;3.50;;;;;;;;;;5063603;28;20021;-59
2022/03/07 13:06:48;;;;;;;13.35;3.60;;;;;;;;;;5063776;28;20024;-69
2022/03/07 13:09:14;;;;;;;13.90;3.60;;;;;;;;;;5061028;28;20446;-67
2022/03/07 13:11:42;;;;;;;12.98;3.50;;;;;;;;;;5057665;28;20439;-74
2022/03/07 13:14:09;;;;;;;14.27;3.50;;;;;;;;;;5060728;28;20100;-75
2022/03/07 13:16:36;;;;;;;14.85;3.30;;;;;;;;;;5060896;28;20029;-56
2022/03/07 13:19:09;;;;;;;9.45;3.33;;;;;;;;;;5060923;28;20059;-76
2022/03/07 13:21:39;;;;;;;10.40;3.33;;;;;;;;;;5062505;28;20041;-57
2022/03/07 13:24:06;;;;;;;12.65;3.47;;;;;;;;;;5070081;28;20500;-57
2022/03/07 13:26:33;;;;;;;12.60;3.58;;;;;;;;;;5063413;28;20036;-57
2022/03/07 13:29:26;;;;;;;9.80;3.30;;;;;;;;;;5053752;28;20033;-65
2022/03/07 13:31:59;;;;;;;6.63;3.15;;;;;;;;;;5063144;28;20036;-76
2022/03/07 13:34:25;;;;;;;9.18;3.20;;;;;;;;;;5058393;28;20070;-57
2022/03/07 13:36:54;;;;;;;6.80;3.03;;;;;;;;;;5052646;28;20029;-57
2022/03/07 13:39:28;;;;;;;14.65;3.40;;;;;;;;;;5059624;28;20032;-58
2022/03/07 13:42:01;;;;;;;11.05;3.25;;;;;;;;;;5057427;28;20067;-57
2022/03/07 13:44:29;;;;;;;10.30;3.47;;;;;;;;;;5069189;28;20049;-57
2022/03/07 13:47:00;;;;;;;8.63;3.40;;;;;;;;;;5072278;28;20032;-58
2022/03/07 13:49:28;;;;;;;8.82;3.40;;;;;;;;;;5072758;28;20029;-63
2022/03/07 13:51:57;;;;;;;9.70;3.20;;;;;;;;;;5066306;28;20021;-64
2022/03/07 13:54:23;;;;;;;9.23;3.70;;;;;;;;;;5054841;28;20535;-57
2022/03/07 13:56:49;;;;;;;11.10;3.47;;;;;;;;;;5059265;28;20029;-65
2022/03/07 13:59:16;;;;;;;8.40;3.40;;;;;;;;;;5072311;28;20028;-59
2022/03/07 14:01:42;;;;;;;11.77;3.67;;;;;;;;;;5074293;28;20397;-57
2022/03/07 14:04:11;;;;;;;10.35;3.50;;;;;;;;;;5070229;28;20103;-58
2022/03/07 14:06:38;;;;;;;10.38;3.40;;;;;;;;;;5057256;28;20056;-58
2022/03/07 14:09:08;;;;;;;11.50;3.60;;;;;;;;;;5067017;28;20596;-58
2022/03/07 14:11:35;;;;;;;12.40;3.72;;;;;;;;;;5060045;28;20052;-57
2022/03/07 14:14:01;;;;;;;10.90;4.57;;;;;;;;;;5072208;28;20501;-57
2022/03/07 14:16:36;;;;;;;13.52;4.68;;;;;;;;;;5070783;28;20032;-57
2022/03/07 14:19:03;;;;;;;14.77;4.40;;;;;;;;;;5074802;28;20041;-60
2022/03/07 14:21:31;;;;;;;13.20;4.22;;;;;;;;;;5068809;28;20366;-63
2022/03/07 14:23:57;;;;;;;11.63;4.05;;;;;;;;;;5059122;28;20028;-68
2022/03/07 14:26:23;;;;;;;16.58;4.00;;;;;;;;;;5061194;28;20059;-62
2022/03/07 14:28:49;;;;;;;17.00;4.68;;;;;;;;;;5063568;28;20027;-63
2022/03/07 14:31:15;;;;;;;17.95;4.15;;;;;;;;;;5058364;28;20025;-62